PWSweather.com
Personal Weather Stations
Station Observations
NBW76
Silver Creek, North Bend, WA 98065

Silver CreekNorth Bend, WA 98065

Lat: 47.4993612, Lon: -121.7783245

Elevation: 443

Station Type: Davisd VP2 + Solar + UV + Webcam

Latest ConditionsUpdated 5:40:01 PM PST Wednesday, Jan 16, 2019
Currently Today's Max Today's Min Today's Average
Temperature 47.8°F8.8°C 51.7°F10.9°C 43.8°F6.6°C 47.1°F8.4°C
Dew Point 32.4°F0.2°C 33.3°F0.7°C 28.6°F-1.9°C 30.6°F-0.8°C
Winds 12.7 mph E20.4 kmh E 16.1 mph -25.9 kmh - - 11.2 mph 18.0 kmh
Wind Gusts 23.0 mph37.0 kmh 28.8 mph46.3 kmh - -
Humidity 55% 55% 48% 53%
Pressure 29.63 in1003.4 mb 29.78 in1008.5 mb 29.63 in1003.4 mb -
Hour Temp Dew Point Humidity Winds Wind Gusts Pressure Precip Precip Rate Daily Precip Total
05:40 PM 47.8°F8.8°C 32.4°F0.2°C 55% 12.7 mph E20.4 kmh E 23.0 mph37.0 kmh 29.63 in1003.4 mb - 0.00 in0.0 mm 0.00 in0.0 mm
05:30 PM 48.1°F8.9°C 32.2°F0.1°C 54% 15.0 mph ESE24.1 kmh ESE 23.0 mph37.0 kmh 29.64 in1003.7 mb - 0.00 in0.0 mm 0.00 in0.0 mm
05:20 PM 48.2°F9.0°C 32.3°F0.2°C 54% 12.7 mph SE20.4 kmh SE 17.3 mph27.8 kmh 29.64 in1003.7 mb - 0.00 in0.0 mm 0.00 in0.0 mm
05:10 PM 47.9°F8.8°C 32.0°F0.0°C 54% 13.8 mph ESE22.2 kmh ESE 21.9 mph35.2 kmh 29.64 in1003.7 mb - 0.00 in0.0 mm 0.00 in0.0 mm
05:00 PM 48.1°F8.9°C 32.2°F0.1°C 54% 10.4 mph E16.7 kmh E 24.2 mph38.9 kmh 29.65 in1004.1 mb - 0.00 in0.0 mm 0.00 in0.0 mm
04:50 PM 48.5°F9.2°C 32.6°F0.3°C 54% 16.1 mph ESE25.9 kmh ESE 20.7 mph33.3 kmh 29.66 in1004.4 mb - 0.00 in0.0 mm 0.00 in0.0 mm
04:40 PM 48.6°F9.2°C 32.7°F0.4°C 54% 13.8 mph E22.2 kmh E 24.2 mph38.9 kmh 29.66 in1004.4 mb - 0.00 in0.0 mm 0.00 in0.0 mm
04:30 PM 48.6°F9.2°C 32.7°F0.4°C 54% 10.4 mph E16.7 kmh E 20.7 mph33.3 kmh 29.66 in1004.4 mb - 0.00 in0.0 mm 0.00 in0.0 mm
04:20 PM 48.7°F9.3°C 32.8°F0.4°C 54% 8.1 mph N13.0 kmh N 11.5 mph18.5 kmh 29.66 in1004.4 mb - 0.00 in0.0 mm 0.00 in0.0 mm
04:10 PM 49.1°F9.5°C 32.7°F0.4°C 53% 10.4 mph N16.7 kmh N 11.5 mph18.5 kmh 29.66 in1004.4 mb - 0.00 in0.0 mm 0.00 in0.0 mm
04:00 PM 49.0°F9.4°C 32.6°F0.3°C 53% 9.2 mph N14.8 kmh N 24.2 mph38.9 kmh 29.66 in1004.4 mb - 0.00 in0.0 mm 0.00 in0.0 mm
03:50 PM 49.1°F9.5°C 32.7°F0.4°C 53% 6.9 mph E11.1 kmh E 19.6 mph31.5 kmh 29.67 in1004.7 mb - 0.00 in0.0 mm 0.00 in0.0 mm
03:40 PM 48.9°F9.4°C 32.5°F0.3°C 53% 10.4 mph E16.7 kmh E 19.6 mph31.5 kmh 29.67 in1004.7 mb - 0.00 in0.0 mm 0.00 in0.0 mm
03:30 PM 48.9°F9.4°C 32.5°F0.3°C 53% 12.7 mph E20.4 kmh E 23.0 mph37.0 kmh 29.68 in1005.1 mb - 0.00 in0.0 mm 0.00 in0.0 mm
03:20 PM 49.0°F9.4°C 32.6°F0.3°C 53% 10.4 mph E16.7 kmh E 16.1 mph25.9 kmh 29.67 in1004.7 mb - 0.00 in0.0 mm 0.00 in0.0 mm
03:10 PM 49.3°F9.6°C 32.9°F0.5°C 53% 9.2 mph N14.8 kmh N 16.1 mph25.9 kmh 29.67 in1004.7 mb - 0.00 in0.0 mm 0.00 in0.0 mm
03:00 PM 49.4°F9.7°C 32.5°F0.3°C 52% 9.2 mph NNE14.8 kmh NNE 15.0 mph24.1 kmh 29.68 in1005.1 mb - 0.00 in0.0 mm 0.00 in0.0 mm
02:50 PM 49.8°F9.9°C 32.9°F0.5°C 52% 10.4 mph E16.7 kmh E 19.6 mph31.5 kmh 29.67 in1004.7 mb - 0.00 in0.0 mm 0.00 in0.0 mm
02:40 PM 50.1°F10.1°C 33.2°F0.7°C 52% 12.7 mph ESE20.4 kmh ESE 21.9 mph35.2 kmh 29.68 in1005.1 mb - 0.00 in0.0 mm 0.00 in0.0 mm
02:30 PM 50.8°F10.4°C 33.3°F0.7°C 51% 8.1 mph ESE13.0 kmh ESE 19.6 mph31.5 kmh 29.69 in1005.4 mb - 0.00 in0.0 mm 0.00 in0.0 mm
02:20 PM 50.8°F10.4°C 33.3°F0.7°C 51% 13.8 mph ESE22.2 kmh ESE 20.7 mph33.3 kmh 29.70 in1005.8 mb - 0.00 in0.0 mm 0.00 in0.0 mm
02:10 PM 50.8°F10.4°C 32.8°F0.4°C 50% 11.5 mph E18.5 kmh E 19.6 mph31.5 kmh 29.69 in1005.4 mb - 0.00 in0.0 mm 0.00 in0.0 mm
02:00 PM 50.8°F10.4°C 33.3°F0.7°C 51% 9.2 mph E14.8 kmh E 12.7 mph20.4 kmh 29.70 in1005.8 mb - 0.00 in0.0 mm 0.00 in0.0 mm
01:50 PM 50.4°F10.2°C 32.9°F0.5°C 51% 5.8 mph E9.3 kmh E 17.3 mph27.8 kmh 29.70 in1005.8 mb - 0.00 in0.0 mm 0.00 in0.0 mm
01:40 PM 50.0°F10.0°C 33.1°F0.6°C 52% 9.2 mph E14.8 kmh E 19.6 mph31.5 kmh 29.71 in1006.1 mb - 0.00 in0.0 mm 0.00 in0.0 mm
01:30 PM 49.8°F9.9°C 32.9°F0.5°C 52% 8.1 mph E13.0 kmh E 15.0 mph24.1 kmh 29.71 in1006.1 mb - 0.00 in0.0 mm 0.00 in0.0 mm
01:20 PM 50.0°F10.0°C 32.6°F0.3°C 51% 9.2 mph E14.8 kmh E 24.2 mph38.9 kmh 29.73 in1006.8 mb - 0.00 in0.0 mm 0.00 in0.0 mm
01:10 PM 51.4°F10.8°C 33.3°F0.7°C 50% 12.7 mph ESE20.4 kmh ESE 28.8 mph46.3 kmh 29.73 in1006.8 mb - 0.00 in0.0 mm 0.00 in0.0 mm
01:00 PM 51.7°F10.9°C 33.1°F0.6°C 49% 12.7 mph ESE20.4 kmh ESE 27.6 mph44.4 kmh 29.73 in1006.8 mb - 0.00 in0.0 mm 0.00 in0.0 mm
12:50 PM 51.0°F10.6°C 32.4°F0.2°C 49% 11.5 mph ESE18.5 kmh ESE 21.9 mph35.2 kmh 29.74 in1007.1 mb - 0.00 in0.0 mm 0.00 in0.0 mm
12:40 PM 51.0°F10.6°C 32.5°F0.3°C 49% 12.7 mph ESE20.4 kmh ESE 20.7 mph33.3 kmh 29.74 in1007.1 mb - 0.00 in0.0 mm 0.00 in0.0 mm
12:30 PM 50.9°F10.5°C 32.4°F0.2°C 49% 11.5 mph ESE18.5 kmh ESE 16.1 mph25.9 kmh 29.74 in1007.1 mb - 0.00 in0.0 mm 0.00 in0.0 mm
12:20 PM 51.5°F10.8°C 32.4°F0.2°C 48% 13.8 mph E22.2 kmh E 19.6 mph31.5 kmh 29.74 in1007.1 mb - 0.00 in0.0 mm 0.00 in0.0 mm
12:10 PM 51.3°F10.7°C 32.3°F0.2°C 48% 10.4 mph ESE16.7 kmh ESE 13.8 mph22.2 kmh 29.75 in1007.5 mb - 0.00 in0.0 mm 0.00 in0.0 mm
12:00 PM 51.4°F10.8°C 32.3°F0.2°C 48% 8.1 mph ESE13.0 kmh ESE 11.5 mph18.5 kmh 29.75 in1007.5 mb - 0.00 in0.0 mm 0.00 in0.0 mm
11:50 AM 50.7°F10.4°C 31.8°F-0.1°C 48% 15.0 mph ESE24.1 kmh ESE 15.0 mph24.1 kmh 29.75 in1007.5 mb - 0.00 in0.0 mm 0.00 in0.0 mm
11:40 AM 50.8°F10.4°C 31.8°F-0.1°C 48% 9.2 mph E14.8 kmh E 16.1 mph25.9 kmh 29.76 in1007.8 mb - 0.00 in0.0 mm 0.00 in0.0 mm
11:30 AM 50.4°F10.2°C 31.4°F-0.3°C 48% 6.9 mph E11.1 kmh E 11.5 mph18.5 kmh 29.76 in1007.8 mb - 0.00 in0.0 mm 0.00 in0.0 mm
11:20 AM 49.8°F9.9°C 31.3°F-0.4°C 49% 10.4 mph ESE16.7 kmh ESE 19.6 mph31.5 kmh 29.76 in1007.8 mb - 0.00 in0.0 mm 0.00 in0.0 mm
11:10 AM 49.7°F9.8°C 31.3°F-0.4°C 49% 9.2 mph ESE14.8 kmh ESE 16.1 mph25.9 kmh 29.76 in1007.8 mb - 0.00 in0.0 mm 0.00 in0.0 mm
11:00 AM 50.3°F10.2°C 31.3°F-0.4°C 48% 8.1 mph ESE13.0 kmh ESE 16.1 mph25.9 kmh 29.77 in1008.1 mb - 0.00 in0.0 mm 0.00 in0.0 mm
10:50 AM 49.6°F9.8°C 31.2°F-0.4°C 49% 11.5 mph N18.5 kmh N 13.8 mph22.2 kmh 29.77 in1008.1 mb - 0.00 in0.0 mm 0.00 in0.0 mm
10:40 AM 49.4°F9.7°C 31.0°F-0.6°C 49% 11.5 mph N18.5 kmh N 15.0 mph24.1 kmh 29.77 in1008.1 mb - 0.00 in0.0 mm 0.00 in0.0 mm
10:30 AM 49.2°F9.6°C 31.3°F-0.4°C 50% 9.2 mph E14.8 kmh E 17.3 mph27.8 kmh 29.77 in1008.1 mb - 0.00 in0.0 mm 0.00 in0.0 mm
10:20 AM 48.4°F9.1°C 30.6°F-0.8°C 50% 10.4 mph E16.7 kmh E 18.4 mph29.6 kmh 29.78 in1008.5 mb - 0.00 in0.0 mm 0.00 in0.0 mm
10:10 AM 48.0°F8.9°C 30.7°F-0.7°C 51% 6.9 mph E11.1 kmh E 11.5 mph18.5 kmh 29.78 in1008.5 mb - 0.00 in0.0 mm 0.00 in0.0 mm
10:00 AM 48.5°F9.2°C 30.7°F-0.7°C 50% 6.9 mph E11.1 kmh E 15.0 mph24.1 kmh 29.77 in1008.1 mb - 0.00 in0.0 mm 0.00 in0.0 mm
09:50 AM 49.2°F9.6°C 30.8°F-0.7°C 49% 4.6 mph E7.4 kmh E 12.7 mph20.4 kmh 29.77 in1008.1 mb - 0.00 in0.0 mm 0.00 in0.0 mm
09:40 AM 48.8°F9.3°C 30.5°F-0.8°C 49% 12.7 mph E20.4 kmh E 21.9 mph35.2 kmh 29.77 in1008.1 mb - 0.00 in0.0 mm 0.00 in0.0 mm
09:30 AM 48.7°F9.3°C 30.8°F-0.7°C 50% 6.9 mph ESE11.1 kmh ESE 18.4 mph29.6 kmh 29.77 in1008.1 mb - 0.00 in0.0 mm 0.00 in0.0 mm
09:20 AM 47.9°F8.8°C 30.6°F-0.8°C 51% 8.1 mph ESE13.0 kmh ESE 12.7 mph20.4 kmh 29.77 in1008.1 mb - 0.00 in0.0 mm 0.00 in0.0 mm
09:10 AM 47.5°F8.6°C 30.3°F-0.9°C 51% 9.2 mph ESE14.8 kmh ESE 12.7 mph20.4 kmh 29.76 in1007.8 mb - 0.00 in0.0 mm 0.00 in0.0 mm
09:00 AM 47.3°F8.5°C 30.5°F-0.8°C 52% 9.2 mph ESE14.8 kmh ESE 13.8 mph22.2 kmh 29.76 in1007.8 mb - 0.00 in0.0 mm 0.00 in0.0 mm
08:50 AM 47.1°F8.4°C 29.9°F-1.2°C 51% 11.5 mph ESE18.5 kmh ESE 21.9 mph35.2 kmh 29.76 in1007.8 mb - 0.00 in0.0 mm 0.00 in0.0 mm
08:40 AM 46.4°F8.0°C 30.2°F-1.0°C 53% 5.8 mph E9.3 kmh E 10.4 mph16.7 kmh 29.76 in1007.8 mb - 0.00 in0.0 mm 0.00 in0.0 mm
08:30 AM 46.4°F8.0°C 29.7°F-1.3°C 52% 13.8 mph ESE22.2 kmh ESE 16.1 mph25.9 kmh 29.75 in1007.5 mb - 0.00 in0.0 mm 0.00 in0.0 mm
08:20 AM 46.0°F7.8°C 29.3°F-1.5°C 52% 12.7 mph ESE20.4 kmh ESE 19.6 mph31.5 kmh 29.75 in1007.5 mb - 0.00 in0.0 mm 0.00 in0.0 mm
08:10 AM 45.8°F7.7°C 29.2°F-1.6°C 52% 15.0 mph ESE24.1 kmh ESE 28.8 mph46.3 kmh 29.75 in1007.5 mb - 0.00 in0.0 mm 0.00 in0.0 mm
08:00 AM 46.0°F7.8°C 29.8°F-1.2°C 53% 12.7 mph E20.4 kmh E 19.6 mph31.5 kmh 29.74 in1007.1 mb - 0.00 in0.0 mm 0.00 in0.0 mm
07:50 AM 45.9°F7.7°C 29.7°F-1.3°C 53% 10.4 mph E16.7 kmh E 23.0 mph37.0 kmh 29.73 in1006.8 mb - 0.00 in0.0 mm 0.00 in0.0 mm
07:40 AM 45.8°F7.7°C 29.6°F-1.3°C 53% 11.5 mph ESE18.5 kmh ESE 15.0 mph24.1 kmh 29.74 in1007.1 mb - 0.00 in0.0 mm 0.00 in0.0 mm
07:30 AM 45.8°F7.7°C 29.6°F-1.3°C 53% 15.0 mph ESE24.1 kmh ESE 19.6 mph31.5 kmh 29.74 in1007.1 mb - 0.00 in0.0 mm 0.00 in0.0 mm
07:20 AM 45.6°F7.6°C 29.4°F-1.4°C 53% 15.0 mph E24.1 kmh E 19.6 mph31.5 kmh 29.74 in1007.1 mb - 0.00 in0.0 mm 0.00 in0.0 mm
07:10 AM 45.3°F7.4°C 29.6°F-1.3°C 54% 13.8 mph ESE22.2 kmh ESE 24.2 mph38.9 kmh 29.73 in1006.8 mb - 0.00 in0.0 mm 0.00 in0.0 mm
07:00 AM 45.2°F7.3°C 29.1°F-1.6°C 53% 12.7 mph ESE20.4 kmh ESE 17.3 mph27.8 kmh 29.73 in1006.8 mb - 0.00 in0.0 mm 0.00 in0.0 mm
06:50 AM 44.9°F7.2°C 29.2°F-1.6°C 54% 10.4 mph ESE16.7 kmh ESE 15.0 mph24.1 kmh 29.73 in1006.8 mb - 0.00 in0.0 mm 0.00 in0.0 mm
06:40 AM 44.7°F7.1°C 29.1°F-1.6°C 54% 11.5 mph E18.5 kmh E 19.6 mph31.5 kmh 29.73 in1006.8 mb - 0.00 in0.0 mm 0.00 in0.0 mm
06:30 AM 44.9°F7.2°C 29.2°F-1.6°C 54% 9.2 mph E14.8 kmh E 11.5 mph18.5 kmh 29.73 in1006.8 mb - 0.00 in0.0 mm 0.00 in0.0 mm
06:20 AM 44.9°F7.2°C 29.2°F-1.6°C 54% 9.2 mph ESE14.8 kmh ESE 16.1 mph25.9 kmh 29.72 in1006.4 mb - 0.00 in0.0 mm 0.00 in0.0 mm
06:10 AM 44.8°F7.1°C 29.2°F-1.6°C 54% 13.8 mph ESE22.2 kmh ESE 19.6 mph31.5 kmh 29.72 in1006.4 mb - 0.00 in0.0 mm 0.00 in0.0 mm
06:00 AM 44.7°F7.1°C 29.1°F-1.6°C 54% 12.7 mph ESE20.4 kmh ESE 15.0 mph24.1 kmh 29.72 in1006.4 mb - 0.00 in0.0 mm 0.00 in0.0 mm
05:50 AM 44.4°F6.9°C 28.8°F-1.8°C 54% 11.5 mph E18.5 kmh E 17.3 mph27.8 kmh 29.72 in1006.4 mb - 0.00 in0.0 mm 0.00 in0.0 mm
05:40 AM 44.3°F6.8°C 28.7°F-1.8°C 54% 12.7 mph ESE20.4 kmh ESE 18.4 mph29.6 kmh 29.72 in1006.4 mb - 0.00 in0.0 mm 0.00 in0.0 mm
05:30 AM 44.5°F6.9°C 28.9°F-1.7°C 54% 12.7 mph ESE20.4 kmh ESE 18.4 mph29.6 kmh 29.72 in1006.4 mb - 0.00 in0.0 mm 0.00 in0.0 mm
05:20 AM 44.5°F6.9°C 28.9°F-1.7°C 54% 12.7 mph ESE20.4 kmh ESE 16.1 mph25.9 kmh 29.73 in1006.8 mb - 0.00 in0.0 mm 0.00 in0.0 mm
05:10 AM 44.4°F6.9°C 28.8°F-1.8°C 54% 13.8 mph ESE22.2 kmh ESE 16.1 mph25.9 kmh 29.73 in1006.8 mb - 0.00 in0.0 mm 0.00 in0.0 mm
05:00 AM 44.4°F6.9°C 28.8°F-1.8°C 54% 11.5 mph ESE18.5 kmh ESE 17.3 mph27.8 kmh 29.73 in1006.8 mb - 0.00 in0.0 mm 0.00 in0.0 mm
04:50 AM 44.3°F6.8°C 28.7°F-1.8°C 54% 11.5 mph ESE18.5 kmh ESE 17.3 mph27.8 kmh 29.73 in1006.8 mb - 0.00 in0.0 mm 0.00 in0.0 mm
04:40 AM 44.1°F6.7°C 29.0°F-1.7°C 55% 15.0 mph ESE24.1 kmh ESE 23.0 mph37.0 kmh 29.73 in1006.8 mb - 0.00 in0.0 mm 0.00 in0.0 mm
04:30 AM 44.2°F6.8°C 29.0°F-1.7°C 55% 11.5 mph ESE18.5 kmh ESE 17.3 mph27.8 kmh 29.73 in1006.8 mb - 0.00 in0.0 mm 0.00 in0.0 mm
04:20 AM 44.3°F6.8°C 29.1°F-1.6°C 55% 10.4 mph ESE16.7 kmh ESE 15.0 mph24.1 kmh 29.73 in1006.8 mb - 0.00 in0.0 mm 0.00 in0.0 mm
04:10 AM 44.5°F6.9°C 29.3°F-1.5°C 55% 13.8 mph ESE22.2 kmh ESE 17.3 mph27.8 kmh 29.73 in1006.8 mb - 0.00 in0.0 mm 0.00 in0.0 mm
04:00 AM 44.5°F6.9°C 28.9°F-1.7°C 54% 15.0 mph ESE24.1 kmh ESE 21.9 mph35.2 kmh 29.73 in1006.8 mb - 0.00 in0.0 mm 0.00 in0.0 mm
03:50 AM 44.6°F7.0°C 29.4°F-1.4°C 55% 15.0 mph SE24.1 kmh SE 16.1 mph25.9 kmh 29.73 in1006.8 mb - 0.00 in0.0 mm 0.00 in0.0 mm
03:40 AM 44.6°F7.0°C 29.4°F-1.4°C 55% 11.5 mph ESE18.5 kmh ESE 15.0 mph24.1 kmh 29.74 in1007.1 mb - 0.00 in0.0 mm 0.00 in0.0 mm
03:30 AM 44.6°F7.0°C 29.4°F-1.4°C 55% 11.5 mph SE18.5 kmh SE 13.8 mph22.2 kmh 29.73 in1006.8 mb - 0.00 in0.0 mm 0.00 in0.0 mm
03:20 AM 44.6°F7.0°C 29.4°F-1.4°C 55% 12.7 mph ESE20.4 kmh ESE 18.4 mph29.6 kmh 29.74 in1007.1 mb - 0.00 in0.0 mm 0.00 in0.0 mm
03:10 AM 44.3°F6.8°C 29.1°F-1.6°C 55% 10.4 mph ESE16.7 kmh ESE 19.6 mph31.5 kmh 29.74 in1007.1 mb - 0.00 in0.0 mm 0.00 in0.0 mm
03:00 AM 44.3°F6.8°C 29.1°F-1.6°C 55% 13.8 mph E22.2 kmh E 18.4 mph29.6 kmh 29.74 in1007.1 mb - 0.00 in0.0 mm 0.00 in0.0 mm
02:50 AM 44.6°F7.0°C 28.9°F-1.7°C 54% 12.7 mph ESE20.4 kmh ESE 21.9 mph35.2 kmh 29.74 in1007.1 mb - 0.00 in0.0 mm 0.00 in0.0 mm
02:40 AM 44.7°F7.1°C 29.0°F-1.7°C 54% 13.8 mph ESE22.2 kmh ESE 17.3 mph27.8 kmh 29.74 in1007.1 mb - 0.00 in0.0 mm 0.00 in0.0 mm
02:30 AM 44.4°F6.9°C 28.8°F-1.8°C 54% 12.7 mph ESE20.4 kmh ESE 16.1 mph25.9 kmh 29.75 in1007.5 mb - 0.00 in0.0 mm 0.00 in0.0 mm
02:20 AM 44.1°F6.7°C 28.9°F-1.7°C 55% 8.1 mph ESE13.0 kmh ESE 12.7 mph20.4 kmh 29.75 in1007.5 mb - 0.00 in0.0 mm 0.00 in0.0 mm
02:10 AM 44.1°F6.7°C 28.9°F-1.7°C 55% 10.4 mph ESE16.7 kmh ESE 16.1 mph25.9 kmh 29.74 in1007.1 mb - 0.00 in0.0 mm 0.00 in0.0 mm
02:00 AM 44.0°F6.7°C 28.9°F-1.7°C 55% 13.8 mph ESE22.2 kmh ESE 19.6 mph31.5 kmh 29.74 in1007.1 mb - 0.00 in0.0 mm 0.00 in0.0 mm
01:50 AM 43.9°F6.6°C 28.8°F-1.8°C 55% 10.4 mph ESE16.7 kmh ESE 17.3 mph27.8 kmh 29.75 in1007.5 mb - 0.00 in0.0 mm 0.00 in0.0 mm
01:40 AM 43.8°F6.6°C 28.7°F-1.8°C 55% 13.8 mph ESE22.2 kmh ESE 21.9 mph35.2 kmh 29.75 in1007.5 mb - 0.00 in0.0 mm 0.00 in0.0 mm
01:30 AM 43.8°F6.6°C 28.7°F-1.8°C 55% 13.8 mph E22.2 kmh E 19.6 mph31.5 kmh 29.75 in1007.5 mb - 0.00 in0.0 mm 0.00 in0.0 mm
01:20 AM 44.0°F6.7°C 28.8°F-1.8°C 55% 10.4 mph ESE16.7 kmh ESE 19.6 mph31.5 kmh 29.75 in1007.5 mb - 0.00 in0.0 mm 0.00 in0.0 mm
01:10 AM 44.3°F6.8°C 28.7°F-1.8°C 54% 13.8 mph ESE22.2 kmh ESE 23.0 mph37.0 kmh 29.75 in1007.5 mb - 0.00 in0.0 mm 0.00 in0.0 mm
01:00 AM 44.4°F6.9°C 28.8°F-1.8°C 54% 13.8 mph ESE22.2 kmh ESE 18.4 mph29.6 kmh 29.75 in1007.5 mb - 0.00 in0.0 mm 0.00 in0.0 mm
12:50 AM 44.3°F6.8°C 28.7°F-1.8°C 54% 12.7 mph ESE20.4 kmh ESE 16.1 mph25.9 kmh 29.75 in1007.5 mb - 0.00 in0.0 mm 0.00 in0.0 mm
12:40 AM 44.3°F6.8°C 28.7°F-1.8°C 54% 9.2 mph ESE14.8 kmh ESE 11.5 mph18.5 kmh 29.75 in1007.5 mb - 0.00 in0.0 mm 0.00 in0.0 mm
12:30 AM 44.5°F6.9°C 28.9°F-1.7°C 54% 10.4 mph E16.7 kmh E 19.6 mph31.5 kmh 29.76 in1007.8 mb - 0.00 in0.0 mm 0.00 in0.0 mm
12:20 AM 44.3°F6.8°C 28.7°F-1.8°C 54% 9.2 mph ESE14.8 kmh ESE 15.0 mph24.1 kmh 29.76 in1007.8 mb - 0.00 in0.0 mm 0.00 in0.0 mm
12:10 AM 44.3°F6.8°C 28.7°F-1.8°C 54% 10.4 mph E16.7 kmh E 13.8 mph22.2 kmh 29.75 in1007.5 mb - 0.00 in0.0 mm 0.00 in0.0 mm
12:00 AM 44.2°F6.8°C 28.6°F-1.9°C 54% 5.8 mph E9.3 kmh E 17.3 mph27.8 kmh 29.76 in1007.8 mb - 0.00 in0.0 mm 0.00 in0.0 mm